Data for 01/14/2009

Time Sea-Level Adjusted Pressure Absolute Pressure Temperature Relative Humidity Dew Point   
(mb) (inHg) (mb) (inHg) (C) (F) (%) (C) (F)
00:05 1023 30.21 852 25.16 4 39.1 48 -6.1 21
00:10 1023 30.21 852 25.16 3.8 38.9 50 -5.7 21.8
00:15 1023 30.21 852 25.16 3.3 38 53 -5.2 22.6
00:20 1023 30.21 852 25.16 3.1 37.6 52 -5.8 21.6
00:25 1023 30.21 853 25.19 3.4 38.1 50 -6 21.2
00:30 1023 30.21 853 25.19 3.5 38.3 50 -6 21.1
00:35 1023 30.21 852 25.16 3.6 38.4 49 -6.2 20.9
00:40 1023 30.21 852 25.16 3.6 38.6 48 -6.5 20.4
00:45 1023 30.21 853 25.19 3.7 38.6 47 -6.5 20.3
00:50 1023 30.21 853 25.19 3.7 38.6 48 -6.2 20.8
00:55 1023 30.21 853 25.19 3.5 38.4 49 -6.3 20.6
01:00 1023 30.21 852 25.16 3.5 38.4 48 -6.4 20.6
01:05 1023 30.21 852 25.16 3.5 38.3 47 -6.8 19.8
01:10 1023 30.21 852 25.16 3.6 38.4 46 -6.9 19.5
01:15 1023 30.21 852 25.16 3.6 38.5 49 -6.1 21.1
01:20 1023 30.21 852 25.16 3.3 38 48 -6.5 20.3
01:25 1023 30.21 852 25.16 3.4 38.2 47 -6.8 19.7
01:30 1023 30.21 853 25.19 3.4 38.2 49 -6.4 20.4
01:35 1024 30.24 853 25.19 3.5 38.4 46 -6.9 19.6
01:40 1023 30.21 853 25.19 3.8 38.8 46 -6.9 19.6
01:45 1023 30.21 853 25.19 3.9 39 46 -6.8 19.8
01:50 1024 30.24 853 25.19 4 39.1 46 -6.6 20
01:55 1024 30.24 853 25.19 4 39.2 46 -6.6 20.1
02:00 1024 30.24 853 25.19 4.1 39.3 46 -6.5 20.3
02:05 1024 30.24 853 25.19 4.1 39.4 46 -6.4 20.4
02:10 1024 30.24 853 25.19 4 39.2 48 -6.1 21
02:15 1024 30.24 853 25.19 3.9 39.1 48 -6.1 21.1
02:20 1024 30.24 853 25.19 3.9 39.1 49 -5.9 21.4
02:25 1024 30.24 853 25.19 3.9 38.9 49 -5.8 21.6
02:30 1024 30.24 853 25.19 3.7 38.7 50 -5.9 21.5
02:35 1024 30.24 853 25.19 3.6 38.5 49 -6 21.2
02:40 1024 30.24 853 25.19 3.6 38.5 49 -6 21.2
02:45 1024 30.24 853 25.19 3.7 38.6 49 -5.9 21.3
02:50 1024 30.24 853 25.19 3.6 38.4 50 -5.9 21.3
02:55 1024 30.24 853 25.19 3.5 38.2 51 -5.8 21.6
03:00 1024 30.24 853 25.19 3.5 38.3 50 -6 21.2
03:05 1024 30.24 853 25.19 3.6 38.5 51 -5.5 22.1
03:10 1024 30.24 853 25.19 3.5 38.2 51 -5.7 21.8
03:15 1024 30.24 853 25.19 3.3 38 51 -5.8 21.6
03:20 1024 30.24 853 25.19 3.3 38 53 -5.4 22.3
03:25 1024 30.24 853 25.19 3.3 37.9 52 -5.6 21.8
03:30 1024 30.24 853 25.19 3.2 37.8 53 -5.5 22.1
03:35 1024 30.24 853 25.19 3.2 37.8 52 -5.6 22
03:40 1024 30.24 853 25.19 3.3 38 53 -5.4 22.2
03:45 1024 30.24 853 25.19 3.1 37.6 54 -5.4 22.3
03:50 1024 30.24 853 25.19 3 37.4 53 -5.6 21.9
03:55 1024 30.24 853 25.19 3 37.5 53 -5.6 22
04:00 1024 30.24 853 25.19 3.1 37.6 52 -5.8 21.5
04:05 1024 30.24 853 25.19 3.1 37.6 52 -5.7 21.8
04:10 1024 30.24 853 25.19 3.2 37.8 52 -5.7 21.7
04:15 1024 30.24 853 25.19 3.2 37.8 52 -5.6 22
04:20 1024 30.24 853 25.19 3.1 37.6 54 -5.4 22.2
04:25 1024 30.24 853 25.19 3 37.4 54 -5.5 22
04:30 1024 30.24 853 25.19 2.9 37.1 55 -5.4 22.3
04:35 1024 30.24 853 25.19 2.8 37 56 -5 22.9
04:40 1024 30.24 853 25.19 2.8 37 56 -5 22.9
04:45 1024 30.24 853 25.19 2.8 37 56 -5.1 22.8
04:50 1024 30.24 853 25.19 2.8 37 58 -4.6 23.7
04:55 1024 30.24 853 25.19 2.8 37 55 -5.3 22.4
05:00 1024 30.24 853 25.19 3.1 37.5 52 -5.8 21.6
05:05 1024 30.24 853 25.19 3.3 37.9 52 -5.7 21.8
05:10 1024 30.24 853 25.19 3.3 38 53 -5.4 22.3
05:15 1024 30.24 853 25.19 3.3 37.9 53 -5.5 22.1
05:20 1024 30.24 853 25.19 3.3 38 51 -5.8 21.6
05:25 1024 30.24 853 25.19 3.5 38.3 51 -5.7 21.8
05:30 1024 30.24 853 25.19 3.7 38.6 50 -5.9 21.5
05:35 1024 30.24 853 25.19 3.7 38.7 50 -5.8 21.6
05:40 1024 30.24 853 25.19 3.7 38.7 49 -5.9 21.3
05:45 1024 30.24 853 25.19 3.8 38.9 48 -6.1 21.1
05:50 1024 30.24 853 25.19 3.8 38.9 48 -6.1 21
05:55 1024 30.24 853 25.19 3.9 39 48 -6.1 21
06:00 1024 30.24 853 25.19 3.9 39 49 -5.9 21.5
06:05 1024 30.24 853 25.19 3.8 38.9 50 -5.7 21.8
06:10 1024 30.24 853 25.19 3.8 38.8 51 -5.4 22.3
06:15 1024 30.24 853 25.19 3.7 38.7 54 -4.7 23.6
06:20 1024 30.24 853 25.19 3.3 38 55 -4.9 23.2
06:25 1024 30.24 853 25.19 3.1 37.5 56 -4.8 23.4
06:30 1024 30.24 853 25.19 3 37.4 56 -4.8 23.3
06:35 1024 30.24 853 25.19 2.9 37.2 58 -4.5 23.9
06:40 1024 30.24 853 25.19 2.7 36.9 58 -4.8 23.4
06:45 1024 30.24 853 25.19 2.6 36.6 59 -4.7 23.5
06:50 1024 30.24 853 25.19 2.5 36.5 58 -5 23
06:55 1024 30.24 853 25.19 2.6 36.7 57 -4.9 23.1
07:00 1024 30.24 853 25.19 2.7 36.9 57 -5 23
07:05 1024 30.24 853 25.19 2.7 36.9 58 -4.7 23.6
07:10 1024 30.24 853 25.19 2.5 36.5 60 -4.4 24.1
07:15 1024 30.24 853 25.19 2.4 36.3 60 -4.6 23.8
07:20 1024 30.24 853 25.19 2.5 36.5 60 -4.6 23.7
07:25 1024 30.24 853 25.19 2.7 36.8 56 -5.3 22.5
07:30 1024 30.24 853 25.19 3 37.4 56 -4.9 23.1
07:35 1024 30.24 853 25.19 3 37.4 56 -5 23.1
07:40 1024 30.24 853 25.19 2.7 36.9 59 -4.6 23.8
07:45 1024 30.24 853 25.19 2.5 36.5 60 -4.4 24
07:50 1024 30.24 853 25.19 2.4 36.2 59 -4.7 23.5
07:55 1024 30.24 853 25.19 2.4 36.3 60 -4.6 23.7
08:00 1024 30.24 853 25.19 2.6 36.7 55 -5.5 22.1
08:05 1024 30.24 853 25.19 2.8 37 56 -5.2 22.6
08:10 1024 30.24 853 25.19 2.9 37.2 55 -5.2 22.6
08:15 1024 30.24 853 25.19 2.8 37 55 -5.3 22.4
08:20 1024 30.24 853 25.19 2.7 36.9 55 -5.5 22.1
08:25 1024 30.24 853 25.19 2.7 36.8 58 -4.9 23.2
08:30 1024 30.24 853 25.19 2.8 37 58 -4.7 23.5
08:35 1024 30.24 853 25.19 2.7 36.9 58 -4.7 23.5
08:40 1024 30.24 853 25.19 2.7 36.9 58 -4.7 23.6
08:45 1024 30.24 853 25.19 2.6 36.7 61 -4.3 24.3
08:50 1024 30.24 853 25.19 2.5 36.4 60 -4.5 24
08:55 1024 30.24 853 25.19 2.6 36.7 57 -5 23
09:00 1024 30.24 853 25.19 2.8 37.1 55 -5.3 22.4
09:05 1024 30.24 854 25.22 2.9 37.2 56 -5 23
09:10 1024 30.24 854 25.22 3.1 37.5 54 -5.4 22.3
09:15 1024 30.24 854 25.22 3.1 37.6 54 -5.2 22.6
09:20 1024 30.24 854 25.22 3.2 37.8 54 -5.1 22.8
09:25 1025 30.27 854 25.22 3.1 37.6 63 -3.3 26
09:30 1025 30.27 854 25.22 2.6 36.8 60 -4.4 24
09:35 1025 30.27 854 25.22 2.8 37 63 -3.6 25.5
09:40 1025 30.27 854 25.22 2.6 36.8 64 -3.4 25.8
09:45 1025 30.27 854 25.22 2.5 36.6 64 -3.5 25.7
09:50 1025 30.27 854 25.22 2.5 36.5 63 -3.9 25
09:55 1025 30.27 854 25.22 2.4 36.3 62 -4 24.7
10:00 1025 30.27 854 25.22 2.4 36.4 64 -3.8 25.2
10:05 1025 30.27 854 25.22 2.5 36.4 63 -3.9 25
10:10 1025 30.27 854 25.22 2.6 36.6 62 -3.9 24.9
10:15 1025 30.27 854 25.22 2.6 36.6 62 -3.9 24.9
10:20 1025 30.27 854 25.22 2.7 36.8 62 -3.9 25
10:25 1025 30.27 854 25.22 2.7 36.9 62 -3.9 25
10:30 1025 30.27 854 25.22 2.8 37 61 -4 24.7
10:35 1025 30.27 854 25.22 2.9 37.2 62 -3.7 25.3
10:40 1025 30.27 854 25.22 3 37.4 59 -4.1 24.6
10:45 1025 30.27 854 25.22 3.1 37.6 58 -4.2 24.4
10:50 1025 30.27 854 25.22 3.2 37.8 57 -4.5 23.9
10:55 1025 30.27 854 25.22 3.3 38 57 -4.4 24.1
11:00 1025 30.27 854 25.22 3.5 38.2 56 -4.6 23.8
11:05 1025 30.27 854 25.22 3.5 38.2 56 -4.5 23.9
11:10 1025 30.27 854 25.22 3.5 38.2 56 -4.6 23.8
11:15 1025 30.27 854 25.22 3.4 38.2 55 -4.6 23.6
11:20 1025 30.27 854 25.22 3.4 38.1 55 -4.9 23.2
11:25 1025 30.27 854 25.22 3.4 38.2 54 -5.1 22.8
11:30 1025 30.27 854 25.22 3.5 38.3 53 -5.1 22.8
11:35 1025 30.27 854 25.22 3.6 38.5 52 -5.4 22.4
11:40 1025 30.27 854 25.22 3.7 38.6 52 -5.3 22.4
11:45 1025 30.27 854 25.22 3.8 38.8 52 -5.3 22.5
11:50 1025 30.27 854 25.22 3.9 39 51 -5.2 22.6
11:55 1025 30.27 854 25.22 3.9 39.1 50 -5.4 22.2
12:00 1025 30.27 854 25.22 3.9 39.1 51 -5.4 22.3
12:05 1025 30.27 854 25.22 4 39.2 51 -5.1 22.8
12:10 1025 30.27 854 25.22 4.1 39.3 50 -5.3 22.4
12:15 1025 30.27 854 25.22 4.1 39.3 48 -6 21.2
12:20 1025 30.27 854 25.22 4.1 39.4 48 -5.9 21.3
12:25 1025 30.27 854 25.22 4.2 39.6 48 -5.9 21.4
12:30 1025 30.27 854 25.22 4.3 39.7 46 -6.3 20.7
12:35 1025 30.27 854 25.22 4.3 39.8 49 -5.6 22
12:40 1025 30.27 854 25.22 4.4 39.9 49 -5.4 22.3
12:45 1025 30.27 854 25.22 4.4 40 52 -4.5 23.9
12:50 1025 30.27 854 25.22 4.2 39.6 52 -4.9 23.2
12:55 1025 30.27 854 25.22 4.3 39.7 49 -5.6 21.9
13:00 1025 30.27 854 25.22 4.4 39.8 48 -5.8 21.6
13:05 1025 30.27 854 25.22 4.4 39.9 48 -5.6 22
13:10 1024 30.24 854 25.22 4.4 39.8 49 -5.5 22.1
13:15 1024 30.24 854 25.22 4.4 39.9 49 -5.5 22.2
13:20 1024 30.24 854 25.22 4.3 39.7 49 -5.4 22.3
13:25 1024 30.24 854 25.22 4.3 39.7 47 -6 21.2
13:30 1024 30.24 854 25.22 4.2 39.6 47 -6 21.2
13:35 1024 30.24 854 25.22 4.2 39.6 48 -5.9 21.4
13:40 1024 30.24 854 25.22 4.2 39.5 48 -5.9 21.4
13:45 1024 30.24 853 25.19 4.1 39.4 48 -6 21.2
13:50 1024 30.24 853 25.19 4.2 39.6 47 -6 21.2
13:55 1024 30.24 853 25.19 4.3 39.7 48 -5.9 21.5
14:00 1024 30.24 853 25.19 4.3 39.8 46 -6.2 20.9
14:05 1024 30.24 853 25.19 4.4 39.9 48 -5.7 21.7
14:10 1024 30.24 853 25.19 4.4 40 48 -5.7 21.8
14:15 1024 30.24 853 25.19 4.3 39.8 48 -5.8 21.6
14:20 1024 30.24 853 25.19 4.4 39.8 47 -6.1 21
14:25 1024 30.24 853 25.19 4.4 39.9 46 -6.2 20.9
14:30 1024 30.24 853 25.19 4.5 40.1 48 -5.6 21.9
14:35 1024 30.24 853 25.19 4.5 40.1 48 -5.6 21.9
14:40 1024 30.24 853 25.19 4.5 40.1 46 -6 21.2
14:45 1024 30.24 853 25.19 4.3 39.7 47 -6 21.2
14:50 1024 30.24 854 25.22 4.1 39.5 48 -5.9 21.4
14:55 1024 30.24 854 25.22 3.9 39 49 -6 21.3
15:00 1024 30.24 854 25.22 3.7 38.7 48 -6.2 20.8
15:05 1024 30.24 854 25.22 3.6 38.5 48 -6.3 20.6
15:10 1024 30.24 854 25.22 3.6 38.5 48 -6.4 20.4
15:15 1025 30.27 854 25.22 3.7 38.6 47 -6.5 20.3
15:20 1025 30.27 854 25.22 3.7 38.7 48 -6.4 20.5
15:25 1025 30.27 854 25.22 3.9 39.1 46 -6.7 19.9
15:30 1025 30.27 854 25.22 4 39.2 46 -6.6 20.1
15:35 1025 30.27 854 25.22 4 39.2 47 -6.2 20.8
15:40 1025 30.27 854 25.22 4 39.2 48 -6.2 20.9
15:45 1025 30.27 854 25.22 3.9 39 48 -6.1 21.1
15:50 1025 30.27 854 25.22 3.9 38.9 49 -5.9 21.4
15:55 1025 30.27 854 25.22 4 39.2 49 -5.7 21.8
16:00 1025 30.27 854 25.22 4.1 39.5 49 -5.6 22
16:05 1025 30.27 854 25.22 4.1 39.4 50 -5.5 22.1
16:10 1025 30.27 854 25.22 4.1 39.3 51 -5.3 22.5
16:15 1025 30.27 854 25.22 3.9 39 50 -5.5 22.1
16:20 1025 30.27 854 25.22 4 39.1 51 -5.3 22.4
16:25 1025 30.27 854 25.22 4 39.2 52 -5 23
16:30 1025 30.27 854 25.22 3.8 38.9 54 -4.6 23.8
16:35 1024 30.24 854 25.22 3.6 38.5 54 -4.9 23.1
16:40 1024 30.24 854 25.22 3.7 38.6 49 -6.2 20.8
16:45 1024 30.24 854 25.22 4 39.2 48 -5.9 21.4
16:50 1024 30.24 854 25.22 4.3 39.7 49 -5.6 22
16:55 1024 30.24 854 25.22 4.3 39.7 52 -4.7 23.6
17:00 1025 30.27 854 25.22 4.1 39.3 52 -4.9 23.1
17:05 1025 30.27 854 25.22 3.9 39.1 54 -4.6 23.7
17:10 1025 30.27 854 25.22 4 39.1 51 -5.2 22.7
17:15 1025 30.27 854 25.22 4.1 39.3 48 -5.9 21.4
17:20 1025 30.27 854 25.22 4.2 39.6 49 -5.7 21.8
17:25 1025 30.27 854 25.22 4.1 39.5 52 -4.8 23.3
17:30 1025 30.27 854 25.22 3.9 39.1 54 -4.5 23.9
17:35 1025 30.27 854 25.22 3.8 38.8 55 -4.4 24.1
17:40 1025 30.27 854 25.22 3.6 38.6 55 -4.7 23.6
17:45 1025 30.27 854 25.22 3.6 38.5 54 -4.8 23.4
17:50 1025 30.27 854 25.22 3.6 38.4 56 -4.4 24.1
17:55 1025 30.27 854 25.22 3.4 38.2 55 -4.8 23.4
18:00 1025 30.27 854 25.22 3.4 38.1 54 -4.9 23.2
18:05 1025 30.27 854 25.22 3.5 38.3 52 -5.4 22.3
18:10 1025 30.27 854 25.22 3.6 38.4 51 -5.7 21.8
18:15 1025 30.27 854 25.22 3.7 38.6 53 -4.9 23.1
18:20 1025 30.27 854 25.22 3.7 38.6 57 -4.1 24.5
18:25 1025 30.27 854 25.22 3.6 38.4 58 -3.9 24.9
18:30 1025 30.27 854 25.22 3.4 38.2 54 -4.9 23.2
18:35 1025 30.27 855 25.25 3.5 38.3 57 -4.3 24.3
18:40 1025 30.27 855 25.25 3.5 38.3 55 -4.7 23.5
18:45 1025 30.27 855 25.25 3.3 38 55 -5 23
18:50 1025 30.27 855 25.25 3.2 37.8 55 -4.9 23.2
18:55 1025 30.27 855 25.25 3.2 37.8 54 -5.2 22.7
19:00 1026 30.3 855 25.25 3.3 37.9 53 -5.3 22.5
19:05 1025 30.27 855 25.25 3.4 38.1 52 -5.5 22.2
19:10 1025 30.27 855 25.25 3.4 38 52 -5.5 22.1
19:15 1025 30.27 855 25.25 3.3 37.9 55 -4.9 23.2
19:20 1026 30.3 855 25.25 3.5 38.4 52 -5.4 22.3
19:25 1026 30.3 855 25.25 3.7 38.6 52 -5.2 22.6
19:30 1026 30.3 855 25.25 3.6 38.5 55 -4.7 23.6
19:35 1026 30.3 855 25.25 3.5 38.4 56 -4.5 23.9
19:40 1026 30.3 855 25.25 3.5 38.3 57 -4.2 24.4
19:45 1026 30.3 855 25.25 3.4 38.2 56 -4.5 23.9
19:50 1026 30.3 855 25.25 3.4 38.2 55 -4.7 23.5
19:55 1026 30.3 855 25.25 3.5 38.4 55 -4.7 23.6
20:00 1026 30.3 855 25.25 3.5 38.4 55 -4.7 23.6
20:05 1026 30.3 855 25.25 3.6 38.4 55 -4.6 23.6
20:10 1026 30.3 855 25.25 3.6 38.5 55 -4.5 24
20:15 1026 30.3 855 25.25 3.7 38.6 54 -4.7 23.5
20:20 1026 30.3 855 25.25 3.8 38.8 54 -4.7 23.6
20:25 1026 30.3 855 25.25 3.8 38.8 55 -4.5 24
20:30 1026 30.3 855 25.25 3.9 39 53 -4.8 23.4
20:35 1026 30.3 855 25.25 4.1 39.3 51 -5.1 22.8
20:40 1026 30.3 855 25.25 4.2 39.5 53 -4.7 23.6
20:45 1026 30.3 855 25.25 4 39.3 55 -4.1 24.6
20:50 1026 30.3 855 25.25 3.9 38.9 57 -4 24.9
20:55 1026 30.3 855 25.25 3.7 38.6 58 -3.9 25
21:00 1026 30.3 855 25.25 3.6 38.5 58 -3.9 25
21:05 1026 30.3 855 25.25 3.5 38.4 59 -3.8 25.1
21:10 1026 30.3 855 25.25 3.4 38.2 59 -3.8 25.2
21:15 1026 30.3 855 25.25 3.3 38 60 -3.7 25.3
21:20 1026 30.3 855 25.25 3.3 37.9 60 -3.7 25.4
21:25 1026 30.3 855 25.25 3.3 37.9 61 -3.6 25.5
21:30 1026 30.3 855 25.25 3.2 37.8 61 -3.6 25.5
21:35 1026 30.3 855 25.25 3.2 37.8 60 -3.7 25.3
21:40 1026 30.3 855 25.25 3.2 37.8 61 -3.6 25.4
21:45 1026 30.3 856 25.28 3.2 37.7 61 -3.6 25.5
21:50 1026 30.3 856 25.28 3.1 37.6 62 -3.5 25.7
21:55 1026 30.3 856 25.28 3.1 37.5 62 -3.5 25.7
22:00 1026 30.3 856 25.28 3.1 37.5 62 -3.5 25.7
22:05 1027 30.33 856 25.28 3.1 37.5 62 -3.5 25.7
22:10 1027 30.33 856 25.28 3.1 37.5 62 -3.5 25.6
22:15 1027 30.33 856 25.28 3 37.4 62 -3.5 25.7
22:20 1027 30.33 856 25.28 3 37.4 64 -3.2 26.2
22:25 1027 30.33 856 25.28 3 37.4 63 -3.4 25.9
22:30 1027 30.33 856 25.28 3 37.5 63 -3.3 26.1
22:35 1027 30.33 856 25.28 3 37.4 64 -3.2 26.3
22:40 1027 30.33 856 25.28 3.1 37.5 63 -3.2 26.3
22:45 1027 30.33 856 25.28 3.2 37.8 62 -3.3 26
22:50 1027 30.33 856 25.28 3.2 37.8 63 -3.1 26.4
22:55 1027 30.33 856 25.28 3.1 37.6 63 -3.2 26.3
23:00 1027 30.33 856 25.28 3.2 37.7 64 -3 26.6
23:05 1027 30.33 856 25.28 3.2 37.8 63 -3.1 26.4
23:10 1027 30.33 856 25.28 3.2 37.8 63 -3.2 26.3
23:15 1027 30.33 856 25.28 3.3 37.9 62 -3.3 26.1
23:20 1027 30.33 856 25.28 3.3 37.9 63 -3.2 26.3
23:25 1027 30.33 856 25.28 3.3 37.9 63 -3 26.5
23:30 1027 30.33 856 25.28 3.3 37.9 63 -3 26.6
23:35 1027 30.33 856 25.28 3.2 37.8 64 -3 26.7
23:40 1027 30.33 856 25.28 2.8 37.1 65 -3 26.5
23:45 1027 30.33 856 25.28 2.5 36.4 67 -3 26.6
23:50 1027 30.33 856 25.28 2.2 36 66 -3.5 25.7
23:55 1027 30.33 856 25.28 2 35.7 66 -3.6 25.4
24:00 1027 30.33 856 25.28 2 35.7 65 -3.9 25